sensor_id;sensor_type;location;lat;lon;timestamp;pressure;altitude;pressure_sealevel;temperature
4421;BMP180;11824;51.178;13.546;2023-04-05T00:02:00;101035.00;;;3.70
4421;BMP180;11824;51.178;13.546;2023-04-05T00:04:27;101029.00;;;3.70
4421;BMP180;11824;51.178;13.546;2023-04-05T00:06:56;101026.00;;;3.70
4421;BMP180;11824;51.178;13.546;2023-04-05T00:09:24;101024.00;;;3.70
4421;BMP180;11824;51.178;13.546;2023-04-05T00:11:52;101024.00;;;3.70
4421;BMP180;11824;51.178;13.546;2023-04-05T00:14:19;101027.00;;;3.70
4421;BMP180;11824;51.178;13.546;2023-04-05T00:16:47;101023.00;;;3.70
4421;BMP180;11824;51.178;13.546;2023-04-05T00:19:14;101023.00;;;3.70
4421;BMP180;11824;51.178;13.546;2023-04-05T00:21:42;101014.00;;;3.70
4421;BMP180;11824;51.178;13.546;2023-04-05T00:24:10;101013.00;;;3.70
4421;BMP180;11824;51.178;13.546;2023-04-05T00:26:41;101015.00;;;3.70
4421;BMP180;11824;51.178;13.546;2023-04-05T00:29:10;101008.00;;;3.70
4421;BMP180;11824;51.178;13.546;2023-04-05T00:31:37;101006.00;;;3.70
4421;BMP180;11824;51.178;13.546;2023-04-05T00:34:05;101012.00;;;3.70
4421;BMP180;11824;51.178;13.546;2023-04-05T00:36:34;101007.00;;;3.70
4421;BMP180;11824;51.178;13.546;2023-04-05T00:39:02;101009.00;;;3.70
4421;BMP180;11824;51.178;13.546;2023-04-05T00:41:29;100998.00;;;3.70
4421;BMP180;11824;51.178;13.546;2023-04-05T00:43:57;101002.00;;;3.70
4421;BMP180;11824;51.178;13.546;2023-04-05T00:46:26;100994.00;;;3.70
4421;BMP180;11824;51.178;13.546;2023-04-05T00:48:54;100996.00;;;3.70
4421;BMP180;11824;51.178;13.546;2023-04-05T00:51:23;101001.00;;;3.60
4421;BMP180;11824;51.178;13.546;2023-04-05T00:53:51;100994.00;;;3.60
4421;BMP180;11824;51.178;13.546;2023-04-05T00:56:19;100989.00;;;3.60
4421;BMP180;11824;51.178;13.546;2023-04-05T00:58:48;101000.00;;;3.60
4421;BMP180;11824;51.178;13.546;2023-04-05T01:01:19;100998.00;;;3.60
4421;BMP180;11824;51.178;13.546;2023-04-05T01:03:51;100991.00;;;3.60
4421;BMP180;11824;51.178;13.546;2023-04-05T01:06:34;100996.00;;;3.60
4421;BMP180;11824;51.178;13.546;2023-04-05T01:09:10;100985.00;;;3.50
4421;BMP180;11824;51.178;13.546;2023-04-05T01:11:42;100985.00;;;3.50
4421;BMP180;11824;51.178;13.546;2023-04-05T01:14:11;100984.00;;;3.50
4421;BMP180;11824;51.178;13.546;2023-04-05T01:16:39;100983.00;;;3.50
4421;BMP180;11824;51.178;13.546;2023-04-05T01:19:06;100985.00;;;3.50
4421;BMP180;11824;51.178;13.546;2023-04-05T01:21:59;100975.00;;;3.40
4421;BMP180;11824;51.178;13.546;2023-04-05T01:27:55;100980.00;;;3.40
4421;BMP180;11824;51.178;13.546;2023-04-05T01:30:31;100976.00;;;3.40
4421;BMP180;11824;51.178;13.546;2023-04-05T01:33:07;100974.00;;;3.40
4421;BMP180;11824;51.178;13.546;2023-04-05T01:35:42;100978.00;;;3.40
4421;BMP180;11824;51.178;13.546;2023-04-05T01:38:17;100971.00;;;3.40
4421;BMP180;11824;51.178;13.546;2023-04-05T01:40:46;100965.00;;;3.40
4421;BMP180;11824;51.178;13.546;2023-04-05T01:43:14;100969.00;;;3.40
4421;BMP180;11824;51.178;13.546;2023-04-05T01:45:43;100970.00;;;3.40
4421;BMP180;11824;51.178;13.546;2023-04-05T01:48:11;100973.00;;;3.40
4421;BMP180;11824;51.178;13.546;2023-04-05T01:50:38;100966.00;;;3.40
4421;BMP180;11824;51.178;13.546;2023-04-05T01:53:07;100960.00;;;3.40
4421;BMP180;11824;51.178;13.546;2023-04-05T01:55:34;100965.00;;;3.40
4421;BMP180;11824;51.178;13.546;2023-04-05T01:58:02;100959.00;;;3.40
4421;BMP180;11824;51.178;13.546;2023-04-05T02:00:29;100962.00;;;3.40
4421;BMP180;11824;51.178;13.546;2023-04-05T02:02:57;100953.00;;;3.40
4421;BMP180;11824;51.178;13.546;2023-04-05T02:05:25;100963.00;;;3.40
4421;BMP180;11824;51.178;13.546;2023-04-05T02:07:52;100949.00;;;3.40
4421;BMP180;11824;51.178;13.546;2023-04-05T02:10:20;100959.00;;;3.40
4421;BMP180;11824;51.178;13.546;2023-04-05T02:12:48;100956.00;;;3.40
4421;BMP180;11824;51.178;13.546;2023-04-05T02:15:15;100953.00;;;3.30
4421;BMP180;11824;51.178;13.546;2023-04-05T02:17:43;100962.00;;;3.30
4421;BMP180;11824;51.178;13.546;2023-04-05T02:20:13;100960.00;;;3.30
4421;BMP180;11824;51.178;13.546;2023-04-05T02:22:40;100961.00;;;3.30
4421;BMP180;11824;51.178;13.546;2023-04-05T02:25:11;100953.00;;;3.30
4421;BMP180;11824;51.178;13.546;2023-04-05T02:27:39;100964.00;;;3.30
4421;BMP180;11824;51.178;13.546;2023-04-05T02:30:07;100957.00;;;3.30
4421;BMP180;11824;51.178;13.546;2023-04-05T02:32:35;100955.00;;;3.30
4421;BMP180;11824;51.178;13.546;2023-04-05T02:35:02;100958.00;;;3.30
4421;BMP180;11824;51.178;13.546;2023-04-05T02:37:31;100946.00;;;3.20
4421;BMP180;11824;51.178;13.546;2023-04-05T02:39:58;100949.00;;;3.30
4421;BMP180;11824;51.178;13.546;2023-04-05T02:42:26;100948.00;;;3.20
4421;BMP180;11824;51.178;13.546;2023-04-05T02:44:53;100951.00;;;3.30
4421;BMP180;11824;51.178;13.546;2023-04-05T02:47:20;100948.00;;;3.20
4421;BMP180;11824;51.178;13.546;2023-04-05T02:49:48;100945.00;;;3.20
4421;BMP180;11824;51.178;13.546;2023-04-05T02:52:16;100950.00;;;3.30
4421;BMP180;11824;51.178;13.546;2023-04-05T02:54:44;100946.00;;;3.30
4421;BMP180;11824;51.178;13.546;2023-04-05T02:57:12;100936.00;;;3.20
4421;BMP180;11824;51.178;13.546;2023-04-05T02:59:40;100948.00;;;3.20
4421;BMP180;11824;51.178;13.546;2023-04-05T03:02:09;100941.00;;;3.20
4421;BMP180;11824;51.178;13.546;2023-04-05T03:04:36;100937.00;;;3.20
4421;BMP180;11824;51.178;13.546;2023-04-05T03:07:04;100943.00;;;3.10
4421;BMP180;11824;51.178;13.546;2023-04-05T03:09:32;100938.00;;;3.10
4421;BMP180;11824;51.178;13.546;2023-04-05T03:12:01;100939.00;;;3.10
4421;BMP180;11824;51.178;13.546;2023-04-05T03:14:29;100942.00;;;3.10
4421;BMP180;11824;51.178;13.546;2023-04-05T03:16:57;100939.00;;;3.10
4421;BMP180;11824;51.178;13.546;2023-04-05T03:19:25;100938.00;;;3.00
4421;BMP180;11824;51.178;13.546;2023-04-05T03:21:53;100946.00;;;3.10
4421;BMP180;11824;51.178;13.546;2023-04-05T03:24:20;100942.00;;;3.00
4421;BMP180;11824;51.178;13.546;2023-04-05T03:26:48;100932.00;;;3.00
4421;BMP180;11824;51.178;13.546;2023-04-05T03:29:16;100938.00;;;3.00
4421;BMP180;11824;51.178;13.546;2023-04-05T03:31:44;100931.00;;;3.00
4421;BMP180;11824;51.178;13.546;2023-04-05T03:34:11;100944.00;;;3.00
4421;BMP180;11824;51.178;13.546;2023-04-05T03:36:39;100928.00;;;3.00
4421;BMP180;11824;51.178;13.546;2023-04-05T03:39:10;100926.00;;;3.00
4421;BMP180;11824;51.178;13.546;2023-04-05T03:41:37;100929.00;;;3.00
4421;BMP180;11824;51.178;13.546;2023-04-05T03:44:05;100937.00;;;3.00
4421;BMP180;11824;51.178;13.546;2023-04-05T03:46:33;100935.00;;;3.00
4421;BMP180;11824;51.178;13.546;2023-04-05T03:49:01;100938.00;;;3.00
4421;BMP180;11824;51.178;13.546;2023-04-05T03:51:29;100945.00;;;3.00
4421;BMP180;11824;51.178;13.546;2023-04-05T03:53:58;100945.00;;;3.00
4421;BMP180;11824;51.178;13.546;2023-04-05T03:56:25;100947.00;;;3.00
4421;BMP180;11824;51.178;13.546;2023-04-05T03:58:53;100938.00;;;3.00
4421;BMP180;11824;51.178;13.546;2023-04-05T04:01:20;100931.00;;;3.00
4421;BMP180;11824;51.178;13.546;2023-04-05T04:03:48;100935.00;;;3.00
4421;BMP180;11824;51.178;13.546;2023-04-05T04:06:16;100945.00;;;3.00
4421;BMP180;11824;51.178;13.546;2023-04-05T04:08:46;100943.00;;;3.00
4421;BMP180;11824;51.178;13.546;2023-04-05T04:11:13;100950.00;;;3.00
4421;BMP180;11824;51.178;13.546;2023-04-05T04:13:40;100945.00;;;3.00
4421;BMP180;11824;51.178;13.546;2023-04-05T04:16:08;100946.00;;;3.00
4421;BMP180;11824;51.178;13.546;2023-04-05T04:18:35;100938.00;;;3.00
4421;BMP180;11824;51.178;13.546;2023-04-05T04:21:03;100932.00;;;3.00
4421;BMP180;11824;51.178;13.546;2023-04-05T04:23:32;100942.00;;;3.00
4421;BMP180;11824;51.178;13.546;2023-04-05T04:26:00;100948.00;;;3.00
4421;BMP180;11824;51.178;13.546;2023-04-05T04:28:29;100943.00;;;3.00
4421;BMP180;11824;51.178;13.546;2023-04-05T04:31:00;100935.00;;;3.00
4421;BMP180;11824;51.178;13.546;2023-04-05T04:33:30;100936.00;;;3.00
4421;BMP180;11824;51.178;13.546;2023-04-05T04:36:07;100936.00;;;2.90
4421;BMP180;11824;51.178;13.546;2023-04-05T04:38:34;100942.00;;;2.90
4421;BMP180;11824;51.178;13.546;2023-04-05T04:41:06;100939.00;;;2.90
4421;BMP180;11824;51.178;13.546;2023-04-05T04:43:33;100940.00;;;2.80
4421;BMP180;11824;51.178;13.546;2023-04-05T04:46:09;100934.00;;;2.80
4421;BMP180;11824;51.178;13.546;2023-04-05T04:48:40;100938.00;;;2.80
4421;BMP180;11824;51.178;13.546;2023-04-05T04:51:09;100936.00;;;2.70
4421;BMP180;11824;51.178;13.546;2023-04-05T04:53:36;100937.00;;;2.60
4421;BMP180;11824;51.178;13.546;2023-04-05T04:56:06;100931.00;;;2.60
4421;BMP180;11824;51.178;13.546;2023-04-05T04:58:33;100938.00;;;2.50
4421;BMP180;11824;51.178;13.546;2023-04-05T05:01:05;100938.00;;;2.50
4421;BMP180;11824;51.178;13.546;2023-04-05T05:03:34;100938.00;;;2.40
4421;BMP180;11824;51.178;13.546;2023-04-05T05:06:06;100935.00;;;2.40
4421;BMP180;11824;51.178;13.546;2023-04-05T05:08:34;100942.00;;;2.30
4421;BMP180;11824;51.178;13.546;2023-04-05T05:11:06;100950.00;;;2.30
4421;BMP180;11824;51.178;13.546;2023-04-05T05:13:33;100952.00;;;2.30
4421;BMP180;11824;51.178;13.546;2023-04-05T05:16:00;100940.00;;;2.30
4421;BMP180;11824;51.178;13.546;2023-04-05T05:18:30;100943.00;;;2.30
4421;BMP180;11824;51.178;13.546;2023-04-05T05:20:57;100952.00;;;2.30
4421;BMP180;11824;51.178;13.546;2023-04-05T05:23:24;100950.00;;;2.30
4421;BMP180;11824;51.178;13.546;2023-04-05T05:25:57;100943.00;;;2.30
4421;BMP180;11824;51.178;13.546;2023-04-05T05:28:25;100932.00;;;2.40
4421;BMP180;11824;51.178;13.546;2023-04-05T05:30:52;100933.00;;;2.50
4421;BMP180;11824;51.178;13.546;2023-04-05T05:33:20;100935.00;;;2.70
4421;BMP180;11824;51.178;13.546;2023-04-05T05:35:48;100941.00;;;3.30
4421;BMP180;11824;51.178;13.546;2023-04-05T05:38:16;100941.00;;;3.90
4421;BMP180;11824;51.178;13.546;2023-04-05T05:40:44;100942.00;;;4.70
4421;BMP180;11824;51.178;13.546;2023-04-05T05:43:12;100943.00;;;5.40
4421;BMP180;11824;51.178;13.546;2023-04-05T05:45:41;100955.00;;;6.00
4421;BMP180;11824;51.178;13.546;2023-04-05T05:48:08;100955.00;;;6.60
4421;BMP180;11824;51.178;13.546;2023-04-05T05:50:37;100958.00;;;7.10
4421;BMP180;11824;51.178;13.546;2023-04-05T05:53:05;100953.00;;;7.50
4421;BMP180;11824;51.178;13.546;2023-04-05T05:55:33;100953.00;;;7.90
4421;BMP180;11824;51.178;13.546;2023-04-05T05:58:01;100946.00;;;8.20
4421;BMP180;11824;51.178;13.546;2023-04-05T06:00:30;100956.00;;;8.50
4421;BMP180;11824;51.178;13.546;2023-04-05T06:02:57;100954.00;;;8.60
4421;BMP180;11824;51.178;13.546;2023-04-05T06:05:25;100948.00;;;8.70
4421;BMP180;11824;51.178;13.546;2023-04-05T06:07:52;100943.00;;;8.80
4421;BMP180;11824;51.178;13.546;2023-04-05T06:10:20;100945.00;;;8.90
4421;BMP180;11824;51.178;13.546;2023-04-05T06:12:48;100956.00;;;9.00
4421;BMP180;11824;51.178;13.546;2023-04-05T06:15:16;100963.00;;;9.10
4421;BMP180;11824;51.178;13.546;2023-04-05T06:17:45;100959.00;;;9.00
4421;BMP180;11824;51.178;13.546;2023-04-05T06:20:13;100956.00;;;9.00
4421;BMP180;11824;51.178;13.546;2023-04-05T06:22:41;100953.00;;;8.90
4421;BMP180;11824;51.178;13.546;2023-04-05T06:25:10;100954.00;;;8.80
4421;BMP180;11824;51.178;13.546;2023-04-05T06:27:38;100950.00;;;8.60
4421;BMP180;11824;51.178;13.546;2023-04-05T06:30:07;100950.00;;;8.40
4421;BMP180;11824;51.178;13.546;2023-04-05T06:32:34;100955.00;;;8.10
4421;BMP180;11824;51.178;13.546;2023-04-05T06:35:03;100956.00;;;7.70
4421;BMP180;11824;51.178;13.546;2023-04-05T06:37:31;100947.00;;;7.30
4421;BMP180;11824;51.178;13.546;2023-04-05T06:39:59;100945.00;;;7.00
4421;BMP180;11824;51.178;13.546;2023-04-05T06:42:26;100944.00;;;6.60
4421;BMP180;11824;51.178;13.546;2023-04-05T06:44:54;100944.00;;;6.40
4421;BMP180;11824;51.178;13.546;2023-04-05T06:47:22;100945.00;;;6.10
4421;BMP180;11824;51.178;13.546;2023-04-05T06:49:49;100944.00;;;5.90
4421;BMP180;11824;51.178;13.546;2023-04-05T06:52:17;100945.00;;;5.70
4421;BMP180;11824;51.178;13.546;2023-04-05T06:54:44;100947.00;;;5.50
4421;BMP180;11824;51.178;13.546;2023-04-05T06:57:12;100937.00;;;5.40
4421;BMP180;11824;51.178;13.546;2023-04-05T06:59:39;100945.00;;;5.30
4421;BMP180;11824;51.178;13.546;2023-04-05T07:02:07;100946.00;;;5.20
4421;BMP180;11824;51.178;13.546;2023-04-05T07:04:34;100946.00;;;5.10
4421;BMP180;11824;51.178;13.546;2023-04-05T07:07:03;100948.00;;;5.00
4421;BMP180;11824;51.178;13.546;2023-04-05T07:09:32;100941.00;;;5.00
4421;BMP180;11824;51.178;13.546;2023-04-05T07:12:05;100937.00;;;4.90
4421;BMP180;11824;51.178;13.546;2023-04-05T07:14:34;100939.00;;;4.90
4421;BMP180;11824;51.178;13.546;2023-04-05T07:17:03;100927.00;;;4.90
4421;BMP180;11824;51.178;13.546;2023-04-05T07:19:31;100933.00;;;4.90
4421;BMP180;11824;51.178;13.546;2023-04-05T07:21:59;100938.00;;;4.90
4421;BMP180;11824;51.178;13.546;2023-04-05T07:24:26;100934.00;;;4.90
4421;BMP180;11824;51.178;13.546;2023-04-05T07:26:55;100938.00;;;4.90
4421;BMP180;11824;51.178;13.546;2023-04-05T07:29:22;100938.00;;;4.90
4421;BMP180;11824;51.178;13.546;2023-04-05T07:31:50;100938.00;;;4.90
4421;BMP180;11824;51.178;13.546;2023-04-05T07:34:17;100930.00;;;5.00
4421;BMP180;11824;51.178;13.546;2023-04-05T07:36:45;100935.00;;;5.00
4421;BMP180;11824;51.178;13.546;2023-04-05T07:39:12;100931.00;;;5.00
4421;BMP180;11824;51.178;13.546;2023-04-05T07:41:40;100926.00;;;5.10
4421;BMP180;11824;51.178;13.546;2023-04-05T07:44:10;100930.00;;;5.10
4421;BMP180;11824;51.178;13.546;2023-04-05T07:46:37;100937.00;;;5.10
4421;BMP180;11824;51.178;13.546;2023-04-05T07:49:12;100926.00;;;5.20
4421;BMP180;11824;51.178;13.546;2023-04-05T07:51:39;100928.00;;;5.20
4421;BMP180;11824;51.178;13.546;2023-04-05T07:54:09;100926.00;;;5.30
4421;BMP180;11824;51.178;13.546;2023-04-05T07:56:36;100931.00;;;5.30
4421;BMP180;11824;51.178;13.546;2023-04-05T07:59:04;100935.00;;;5.30
4421;BMP180;11824;51.178;13.546;2023-04-05T08:01:32;100931.00;;;5.40
4421;BMP180;11824;51.178;13.546;2023-04-05T08:04:00;100924.00;;;5.40
4421;BMP180;11824;51.178;13.546;2023-04-05T08:06:27;100930.00;;;5.50
4421;BMP180;11824;51.178;13.546;2023-04-05T08:08:54;100923.00;;;5.60
4421;BMP180;11824;51.178;13.546;2023-04-05T08:11:22;100932.00;;;5.60
4421;BMP180;11824;51.178;13.546;2023-04-05T08:13:49;100929.00;;;5.70
4421;BMP180;11824;51.178;13.546;2023-04-05T08:16:17;100922.00;;;5.70
4421;BMP180;11824;51.178;13.546;2023-04-05T08:18:45;100915.00;;;5.80
4421;BMP180;11824;51.178;13.546;2023-04-05T08:21:12;100913.00;;;5.80
4421;BMP180;11824;51.178;13.546;2023-04-05T08:23:40;100918.00;;;5.90
4421;BMP180;11824;51.178;13.546;2023-04-05T08:26:07;100914.00;;;6.00
4421;BMP180;11824;51.178;13.546;2023-04-05T08:28:35;100915.00;;;6.00
4421;BMP180;11824;51.178;13.546;2023-04-05T08:31:02;100915.00;;;6.00
4421;BMP180;11824;51.178;13.546;2023-04-05T08:33:30;100910.00;;;6.10
4421;BMP180;11824;51.178;13.546;2023-04-05T08:36:04;100913.00;;;6.10
4421;BMP180;11824;51.178;13.546;2023-04-05T08:38:31;100920.00;;;6.20
4421;BMP180;11824;51.178;13.546;2023-04-05T08:41:07;100909.00;;;6.20
4421;BMP180;11824;51.178;13.546;2023-04-05T08:43:43;100917.00;;;6.30
4421;BMP180;11824;51.178;13.546;2023-04-05T08:46:14;100905.00;;;6.40
4421;BMP180;11824;51.178;13.546;2023-04-05T08:48:42;100907.00;;;6.50
4421;BMP180;11824;51.178;13.546;2023-04-05T08:51:10;100902.00;;;6.60
4421;BMP180;11824;51.178;13.546;2023-04-05T08:53:38;100910.00;;;6.70
4421;BMP180;11824;51.178;13.546;2023-04-05T08:56:06;100905.00;;;6.90
4421;BMP180;11824;51.178;13.546;2023-04-05T08:58:35;100906.00;;;7.00
4421;BMP180;11824;51.178;13.546;2023-04-05T09:01:04;100911.00;;;7.20
4421;BMP180;11824;51.178;13.546;2023-04-05T09:03:35;100910.00;;;7.40
4421;BMP180;11824;51.178;13.546;2023-04-05T09:06:05;100915.00;;;7.50
4421;BMP180;11824;51.178;13.546;2023-04-05T09:08:34;100916.00;;;7.50
4421;BMP180;11824;51.178;13.546;2023-04-05T09:11:02;100918.00;;;7.60
4421;BMP180;11824;51.178;13.546;2023-04-05T09:13:29;100913.00;;;7.70
4421;BMP180;11824;51.178;13.546;2023-04-05T09:15:57;100919.00;;;7.80
4421;BMP180;11824;51.178;13.546;2023-04-05T09:18:27;100918.00;;;7.90
4421;BMP180;11824;51.178;13.546;2023-04-05T09:21:02;100910.00;;;8.00
4421;BMP180;11824;51.178;13.546;2023-04-05T09:23:30;100917.00;;;8.10
4421;BMP180;11824;51.178;13.546;2023-04-05T09:26:00;100924.00;;;8.20
4421;BMP180;11824;51.178;13.546;2023-04-05T09:28:44;100918.00;;;8.20
4421;BMP180;11824;51.178;13.546;2023-04-05T09:31:29;100928.00;;;8.20
4421;BMP180;11824;51.178;13.546;2023-04-05T09:33:58;100924.00;;;8.20
4421;BMP180;11824;51.178;13.546;2023-04-05T09:36:26;100914.00;;;8.30
4421;BMP180;11824;51.178;13.546;2023-04-05T09:39:04;100912.00;;;8.40
4421;BMP180;11824;51.178;13.546;2023-04-05T09:41:33;100909.00;;;8.50
4421;BMP180;11824;51.178;13.546;2023-04-05T09:44:01;100917.00;;;8.60
4421;BMP180;11824;51.178;13.546;2023-04-05T09:46:30;100910.00;;;8.70
4421;BMP180;11824;51.178;13.546;2023-04-05T09:48:58;100909.00;;;8.70
4421;BMP180;11824;51.178;13.546;2023-04-05T09:51:32;100907.00;;;8.70
4421;BMP180;11824;51.178;13.546;2023-04-05T09:54:04;100904.00;;;8.70
4421;BMP180;11824;51.178;13.546;2023-04-05T09:56:34;100897.00;;;8.70
4421;BMP180;11824;51.178;13.546;2023-04-05T09:59:05;100894.00;;;8.70
4421;BMP180;11824;51.178;13.546;2023-04-05T10:01:33;100898.00;;;8.70
4421;BMP180;11824;51.178;13.546;2023-04-05T10:04:00;100899.00;;;8.70
4421;BMP180;11824;51.178;13.546;2023-04-05T10:06:35;100905.00;;;8.70
4421;BMP180;11824;51.178;13.546;2023-04-05T10:09:03;100891.00;;;8.80
4421;BMP180;11824;51.178;13.546;2023-04-05T10:11:32;100894.00;;;8.80
4421;BMP180;11824;51.178;13.546;2023-04-05T10:14:01;100896.00;;;8.90
4421;BMP180;11824;51.178;13.546;2023-04-05T10:16:31;100897.00;;;9.00
4421;BMP180;11824;51.178;13.546;2023-04-05T10:18:59;100897.00;;;9.10
4421;BMP180;11824;51.178;13.546;2023-04-05T10:21:29;100896.00;;;9.30
4421;BMP180;11824;51.178;13.546;2023-04-05T10:24:04;100895.00;;;9.50
4421;BMP180;11824;51.178;13.546;2023-04-05T10:26:39;100882.00;;;9.60
4421;BMP180;11824;51.178;13.546;2023-04-05T10:29:11;100893.00;;;9.80
4421;BMP180;11824;51.178;13.546;2023-04-05T10:31:49;100896.00;;;9.90
4421;BMP180;11824;51.178;13.546;2023-04-05T10:34:27;100879.00;;;9.90
4421;BMP180;11824;51.178;13.546;2023-04-05T10:36:59;100881.00;;;10.00
4421;BMP180;11824;51.178;13.546;2023-04-05T10:39:29;100880.00;;;10.10
4421;BMP180;11824;51.178;13.546;2023-04-05T10:42:02;100883.00;;;10.20
4421;BMP180;11824;51.178;13.546;2023-04-05T10:44:31;100876.00;;;10.30
4421;BMP180;11824;51.178;13.546;2023-04-05T10:47:00;100872.00;;;10.30
4421;BMP180;11824;51.178;13.546;2023-04-05T10:49:39;100874.00;;;10.40
4421;BMP180;11824;51.178;13.546;2023-04-05T10:52:09;100875.00;;;10.50
4421;BMP180;11824;51.178;13.546;2023-04-05T10:54:37;100875.00;;;10.60
4421;BMP180;11824;51.178;13.546;2023-04-05T10:57:06;100870.00;;;10.60
4421;BMP180;11824;51.178;13.546;2023-04-05T10:59:42;100879.00;;;10.70
4421;BMP180;11824;51.178;13.546;2023-04-05T11:02:10;100871.00;;;10.70
4421;BMP180;11824;51.178;13.546;2023-04-05T11:04:39;100877.00;;;10.80
4421;BMP180;11824;51.178;13.546;2023-04-05T11:07:13;100878.00;;;10.80
4421;BMP180;11824;51.178;13.546;2023-04-05T11:09:50;100877.00;;;10.80
4421;BMP180;11824;51.178;13.546;2023-04-05T11:12:19;100868.00;;;10.80
4421;BMP180;11824;51.178;13.546;2023-04-05T11:14:46;100868.00;;;10.90
4421;BMP180;11824;51.178;13.546;2023-04-05T11:17:27;100869.00;;;11.00
4421;BMP180;11824;51.178;13.546;2023-04-05T11:20:02;100875.00;;;11.10
4421;BMP180;11824;51.178;13.546;2023-04-05T11:22:30;100863.00;;;11.10
4421;BMP180;11824;51.178;13.546;2023-04-05T11:24:59;100871.00;;;11.10
4421;BMP180;11824;51.178;13.546;2023-04-05T11:27:30;100865.00;;;11.20
4421;BMP180;11824;51.178;13.546;2023-04-05T11:29:59;100860.00;;;11.30
4421;BMP180;11824;51.178;13.546;2023-04-05T11:32:39;100859.00;;;11.30
4421;BMP180;11824;51.178;13.546;2023-04-05T11:35:11;100867.00;;;11.40
4421;BMP180;11824;51.178;13.546;2023-04-05T11:38:05;100870.00;;;11.40
4421;BMP180;11824;51.178;13.546;2023-04-05T11:40:35;100856.00;;;11.30
4421;BMP180;11824;51.178;13.546;2023-04-05T11:43:05;100868.00;;;11.20
4421;BMP180;11824;51.178;13.546;2023-04-05T11:45:34;100861.00;;;11.00
4421;BMP180;11824;51.178;13.546;2023-04-05T11:48:05;100857.00;;;10.90
4421;BMP180;11824;51.178;13.546;2023-04-05T11:50:35;100856.00;;;10.70
4421;BMP180;11824;51.178;13.546;2023-04-05T11:53:12;100866.00;;;10.60
4421;BMP180;11824;51.178;13.546;2023-04-05T11:55:41;100862.00;;;10.40
4421;BMP180;11824;51.178;13.546;2023-04-05T11:58:17;100868.00;;;10.30
4421;BMP180;11824;51.178;13.546;2023-04-05T12:00:56;100863.00;;;10.20
4421;BMP180;11824;51.178;13.546;2023-04-05T12:03:31;100866.00;;;10.10
4421;BMP180;11824;51.178;13.546;2023-04-05T12:06:03;100873.00;;;10.10
4421;BMP180;11824;51.178;13.546;2023-04-05T12:08:39;100865.00;;;10.10
4421;BMP180;11824;51.178;13.546;2023-04-05T12:11:08;100871.00;;;10.20
4421;BMP180;11824;51.178;13.546;2023-04-05T12:13:37;100870.00;;;10.20
4421;BMP180;11824;51.178;13.546;2023-04-05T12:16:06;100860.00;;;10.40
4421;BMP180;11824;51.178;13.546;2023-04-05T12:18:35;100856.00;;;10.50
4421;BMP180;11824;51.178;13.546;2023-04-05T12:21:04;100851.00;;;10.70
4421;BMP180;11824;51.178;13.546;2023-04-05T12:23:36;100859.00;;;10.80
4421;BMP180;11824;51.178;13.546;2023-04-05T12:26:06;100852.00;;;10.90
4421;BMP180;11824;51.178;13.546;2023-04-05T12:28:59;100853.00;;;11.00
4421;BMP180;11824;51.178;13.546;2023-04-05T12:31:38;100849.00;;;11.10
4421;BMP180;11824;51.178;13.546;2023-04-05T12:34:07;100846.00;;;11.10
4421;BMP180;11824;51.178;13.546;2023-04-05T12:36:35;100836.00;;;11.20
4421;BMP180;11824;51.178;13.546;2023-04-05T12:39:06;100830.00;;;11.30
4421;BMP180;11824;51.178;13.546;2023-04-05T12:41:35;100828.00;;;11.40
4421;BMP180;11824;51.178;13.546;2023-04-05T12:44:08;100821.00;;;11.40
4421;BMP180;11824;51.178;13.546;2023-04-05T12:46:39;100829.00;;;11.50
4421;BMP180;11824;51.178;13.546;2023-04-05T12:49:10;100823.00;;;11.50
4421;BMP180;11824;51.178;13.546;2023-04-05T12:51:45;100827.00;;;11.60
4421;BMP180;11824;51.178;13.546;2023-04-05T12:54:13;100827.00;;;11.60
4421;BMP180;11824;51.178;13.546;2023-04-05T12:56:40;100827.00;;;11.50
4421;BMP180;11824;51.178;13.546;2023-04-05T12:59:08;100830.00;;;11.50
4421;BMP180;11824;51.178;13.546;2023-04-05T13:01:36;100818.00;;;11.30
4421;BMP180;11824;51.178;13.546;2023-04-05T13:04:04;100824.00;;;11.10
4421;BMP180;11824;51.178;13.546;2023-04-05T13:06:42;100822.00;;;11.10
4421;BMP180;11824;51.178;13.546;2023-04-05T13:09:09;100818.00;;;11.00
4421;BMP180;11824;51.178;13.546;2023-04-05T13:11:36;100823.00;;;11.00
4421;BMP180;11824;51.178;13.546;2023-04-05T13:14:04;100813.00;;;10.90
4421;BMP180;11824;51.178;13.546;2023-04-05T13:16:32;100818.00;;;10.90
4421;BMP180;11824;51.178;13.546;2023-04-05T13:19:00;100822.00;;;11.00
4421;BMP180;11824;51.178;13.546;2023-04-05T13:21:27;100821.00;;;10.90
4421;BMP180;11824;51.178;13.546;2023-04-05T13:23:54;100825.00;;;10.80
4421;BMP180;11824;51.178;13.546;2023-04-05T13:26:22;100828.00;;;10.80
4421;BMP180;11824;51.178;13.546;2023-04-05T13:28:49;100821.00;;;10.70
4421;BMP180;11824;51.178;13.546;2023-04-05T13:31:17;100818.00;;;10.60
4421;BMP180;11824;51.178;13.546;2023-04-05T13:33:45;100817.00;;;10.60
4421;BMP180;11824;51.178;13.546;2023-04-05T13:36:12;100810.00;;;10.50
4421;BMP180;11824;51.178;13.546;2023-04-05T13:38:40;100814.00;;;10.50
4421;BMP180;11824;51.178;13.546;2023-04-05T13:41:07;100806.00;;;10.50
4421;BMP180;11824;51.178;13.546;2023-04-05T13:43:35;100805.00;;;10.50
4421;BMP180;11824;51.178;13.546;2023-04-05T13:46:02;100797.00;;;10.50
4421;BMP180;11824;51.178;13.546;2023-04-05T13:48:29;100803.00;;;10.50
4421;BMP180;11824;51.178;13.546;2023-04-05T13:50:57;100799.00;;;10.50
4421;BMP180;11824;51.178;13.546;2023-04-05T13:53:25;100797.00;;;10.50
4421;BMP180;11824;51.178;13.546;2023-04-05T13:55:55;100795.00;;;10.50
4421;BMP180;11824;51.178;13.546;2023-04-05T13:58:22;100793.00;;;10.50
4421;BMP180;11824;51.178;13.546;2023-04-05T14:00:50;100793.00;;;10.50
4421;BMP180;11824;51.178;13.546;2023-04-05T14:03:18;100797.00;;;10.60
4421;BMP180;11824;51.178;13.546;2023-04-05T14:05:46;100795.00;;;10.50
4421;BMP180;11824;51.178;13.546;2023-04-05T14:08:18;100797.00;;;10.50
4421;BMP180;11824;51.178;13.546;2023-04-05T14:10:45;100788.00;;;10.60
4421;BMP180;11824;51.178;13.546;2023-04-05T14:13:13;100788.00;;;10.60
4421;BMP180;11824;51.178;13.546;2023-04-05T14:15:42;100788.00;;;10.60
4421;BMP180;11824;51.178;13.546;2023-04-05T14:18:10;100785.00;;;10.60
4421;BMP180;11824;51.178;13.546;2023-04-05T14:20:38;100770.00;;;10.50
4421;BMP180;11824;51.178;13.546;2023-04-05T14:23:06;100787.00;;;10.50